Air Navigation Services of Czech Republic
Airport: LKPD Updated:  23.09.2020 06:00:25  UTC
 METAR LKPD 23.09. 06:00 ...
METAR LKPD 230600Z VRB02KT CAVOK 12/10 Q1008 NOSIG RMK BLU BLU=
 TAF LKPD 23.09. 05:00 ...
TAF LKPD 230500Z 2306/2406 11004KT CAVOK      BECMG 2309/2311 17008KT BKN040      TEMPO 2312/2322 7000 SHRA SCT030TCU BKN040      PROB30 TEMPO 2316/2321 22014G24KT 5000 TSRA SCT025CB BKN040      BECMG 2320/2322 25008KT=